Time,TemperatureF,DewpointF,PressureIn,WindDirection,WindDirectionDegrees,WindSpeedMPH,WindSpeedGustMPH,Humidity,HourlyPrecipIn,Conditions,Clouds,dailyrainin,SolarRadiationWatts/m^2,SoftwareType,DateUTC
2014-10-25 00:03:00,53.8,51.0,29.87,WNW,287,0.0,0.0,90,-99.99,,,-99.99,0.0,1-wire,2014-10-25 05:03:00,
2014-10-25 00:08:00,54.0,51.2,29.87,WNW,287,0.0,0.0,90,-99.99,,,-99.99,0.0,1-wire,2014-10-25 05:08:00,
2014-10-25 00:13:00,54.1,51.2,29.87,West,280,0.0,0.0,90,-99.99,,,-99.99,0.0,1-wire,2014-10-25 05:13:00,
2014-10-25 00:18:00,54.3,51.7,29.87,West,280,0.0,0.0,91,-99.99,,,-99.99,0.0,1-wire,2014-10-25 05:18:00,
2014-10-25 00:23:00,54.4,51.8,29.86,West,280,0.0,0.0,91,-99.99,,,-99.99,0.0,1-wire,2014-10-25 05:23:00,
2014-10-25 00:28:00,54.6,52.0,29.87,WNW,283,0.0,0.0,91,-99.99,,,-99.99,0.0,1-wire,2014-10-25 05:28:00,
2014-10-25 00:33:00,54.4,51.9,29.86,WNW,283,0.0,0.0,91,-99.99,,,-99.99,0.0,1-wire,2014-10-25 05:33:00,
2014-10-25 00:38:00,54.7,52.2,29.86,WNW,283,0.0,0.0,91,-99.99,,,-99.99,0.0,1-wire,2014-10-25 05:38:00,
2014-10-25 00:43:00,54.6,51.9,29.86,West,278,0.0,0.0,91,-99.99,,,-99.99,0.0,1-wire,2014-10-25 05:43:00,
2014-10-25 00:48:00,54.1,51.5,29.86,West,278,0.0,0.0,91,-99.99,,,-99.99,0.0,1-wire,2014-10-25 05:48:00,
2014-10-25 00:53:00,53.9,51.6,29.86,West,278,0.0,0.0,92,-99.99,,,-99.99,0.0,1-wire,2014-10-25 05:53:00,
2014-10-25 00:58:00,54.3,52.1,29.86,West,278,0.0,0.0,92,-99.99,,,-99.99,0.0,1-wire,2014-10-25 05:58:00,
2014-10-25 01:03:00,54.6,52.3,29.87,West,278,0.0,0.0,92,-99.99,,,-99.99,0.0,1-wire,2014-10-25 06:03:00,
2014-10-25 01:09:00,54.7,52.7,29.86,West,278,0.0,2.0,93,-99.99,,,-99.99,0.0,1-wire,2014-10-25 06:09:00,
2014-10-25 01:14:00,54.7,52.7,29.86,WNW,299,0.0,0.0,93,-99.99,,,-99.99,0.0,1-wire,2014-10-25 06:14:00,
2014-10-25 01:19:00,55.3,53.4,29.86,WNW,299,0.0,0.0,93,-99.99,,,-99.99,0.0,1-wire,2014-10-25 06:19:00,
2014-10-25 01:24:00,55.6,53.8,29.86,WNW,299,0.0,2.0,94,-99.99,,,-99.99,0.0,1-wire,2014-10-25 06:24:00,
2014-10-25 01:29:00,56.1,54.4,29.86,WNW,299,0.0,2.0,94,-99.99,,,-99.99,0.0,1-wire,2014-10-25 06:29:00,
2014-10-25 01:34:00,56.4,54.6,29.86,WNW,299,0.0,0.0,94,-99.99,,,-99.99,0.0,1-wire,2014-10-25 06:34:00,
2014-10-25 01:39:00,56.8,55.1,29.86,WNW,299,0.0,0.0,94,-99.99,,,-99.99,0.0,1-wire,2014-10-25 06:39:00,
2014-10-25 01:44:00,56.9,55.1,29.86,WNW,298,1.0,3.0,94,-99.99,,,-99.99,0.0,1-wire,2014-10-25 06:44:00,
2014-10-25 01:49:00,57.0,55.1,29.86,WNW,298,0.0,2.0,93,-99.99,,,-99.99,0.0,1-wire,2014-10-25 06:49:00,
2014-10-25 01:54:00,57.3,55.4,29.86,WNW,298,0.0,0.0,93,-99.99,,,-99.99,0.0,1-wire,2014-10-25 06:54:00,
2014-10-25 01:59:00,57.3,55.2,29.86,WNW,303,0.0,0.0,93,-99.99,,,-99.99,0.0,1-wire,2014-10-25 06:59:00,
2014-10-25 02:04:00,57.6,55.7,29.87,WNW,303,1.0,3.0,93,-99.99,,,-99.99,0.0,1-wire,2014-10-25 07:04:00,
2014-10-25 02:09:00,58.0,55.9,29.86,WNW,303,0.0,0.0,93,-99.99,,,-99.99,0.0,1-wire,2014-10-25 07:09:00,
2014-10-25 02:14:00,58.0,55.8,29.86,West,275,1.0,5.0,93,-99.99,,,-99.99,0.0,1-wire,2014-10-25 07:14:00,
2014-10-25 02:19:00,57.9,55.7,29.86,West,275,3.0,9.0,92,-99.99,,,-99.99,0.0,1-wire,2014-10-25 07:19:00,
2014-10-25 02:25:00,58.2,55.9,29.86,West,275,1.0,4.0,92,-99.99,,,-99.99,0.0,1-wire,2014-10-25 07:25:00,
2014-10-25 02:30:00,58.1,55.6,29.86,WNW,285,4.0,10.0,91,-99.99,,,-99.99,0.0,1-wire,2014-10-25 07:30:00,
2014-10-25 02:35:00,58.3,55.6,29.86,WNW,285,2.0,4.0,91,-99.99,,,-99.99,0.0,1-wire,2014-10-25 07:35:00,
2014-10-25 02:40:00,58.2,55.5,29.87,WNW,285,0.0,2.0,91,-99.99,,,-99.99,0.0,1-wire,2014-10-25 07:40:00,
2014-10-25 02:45:00,58.3,55.3,29.87,WNW,282,1.0,2.0,90,-99.99,,,-99.99,0.0,1-wire,2014-10-25 07:45:00,
2014-10-25 02:50:00,58.1,55.1,29.86,WNW,282,4.0,9.0,90,-99.99,,,-99.99,0.0,1-wire,2014-10-25 07:50:00,
2014-10-25 02:55:00,58.0,54.9,29.86,WNW,282,0.0,4.0,89,-99.99,,,-99.99,0.0,1-wire,2014-10-25 07:55:00,
2014-10-25 03:00:00,57.9,54.9,29.86,WNW,284,1.0,2.0,89,-99.99,,,-99.99,0.0,1-wire,2014-10-25 08:00:00,
2014-10-25 03:05:00,57.9,54.8,29.86,WNW,284,1.0,3.0,89,-99.99,,,-99.99,0.0,1-wire,2014-10-25 08:05:00,
2014-10-25 03:10:00,57.8,54.7,29.86,WNW,284,1.0,3.0,89,-99.99,,,-99.99,1.5,1-wire,2014-10-25 08:10:00,
2014-10-25 03:15:00,57.6,54.5,29.86,West,279,2.0,4.0,89,-99.99,,,-99.99,1.5,1-wire,2014-10-25 08:15:00,
2014-10-25 03:20:00,57.5,54.4,29.86,West,279,0.0,2.0,89,-99.99,,,-99.99,0.0,1-wire,2014-10-25 08:20:00,
2014-10-25 03:25:00,57.4,54.5,29.86,West,279,0.0,2.0,90,-99.99,,,-99.99,0.0,1-wire,2014-10-25 08:25:00,
2014-10-25 03:30:00,57.3,54.5,29.86,West,280,2.0,5.0,90,-99.99,,,-99.99,0.0,1-wire,2014-10-25 08:30:00,
2014-10-25 03:35:00,57.3,54.3,29.86,West,280,1.0,4.0,90,-99.99,,,-99.99,0.0,1-wire,2014-10-25 08:35:00,
2014-10-25 03:40:00,57.1,54.3,29.86,West,280,1.0,3.0,90,-99.99,,,-99.99,0.0,1-wire,2014-10-25 08:40:00,
2014-10-25 03:45:00,57.2,54.4,29.86,West,280,3.0,5.0,90,-99.99,,,-99.99,0.0,1-wire,2014-10-25 08:45:00,
2014-10-25 03:50:00,57.1,54.4,29.86,West,280,2.0,5.0,91,-99.99,,,-99.99,0.0,1-wire,2014-10-25 08:50:00,
2014-10-25 03:55:00,57.1,54.4,29.86,West,280,1.0,4.0,91,-99.99,,,-99.99,0.0,1-wire,2014-10-25 08:55:00,
2014-10-25 04:00:00,57.1,54.5,29.86,West,275,3.0,6.0,91,-99.99,,,-99.99,0.0,1-wire,2014-10-25 09:00:00,
2014-10-25 04:06:00,57.2,54.6,29.87,West,275,3.0,6.0,91,-99.99,,,-99.99,0.0,1-wire,2014-10-25 09:06:00,
2014-10-25 04:11:00,57.2,54.5,29.86,West,275,4.0,8.0,91,-99.99,,,-99.99,0.0,1-wire,2014-10-25 09:11:00,
2014-10-25 04:16:00,57.1,54.5,29.86,West,273,2.0,4.0,91,-99.99,,,-99.99,0.0,1-wire,2014-10-25 09:16:00,
2014-10-25 04:21:00,57.0,54.3,29.86,West,273,2.0,5.0,91,-99.99,,,-99.99,0.0,1-wire,2014-10-25 09:21:00,
2014-10-25 04:26:00,57.0,54.3,29.86,West,273,1.0,3.0,91,-99.99,,,-99.99,0.0,1-wire,2014-10-25 09:26:00,
2014-10-25 04:31:00,56.8,54.2,29.86,West,279,3.0,7.0,91,-99.99,,,-99.99,0.0,1-wire,2014-10-25 09:31:00,
2014-10-25 04:36:00,56.8,54.3,29.86,West,279,2.0,5.0,91,-99.99,,,-99.99,0.0,1-wire,2014-10-25 09:36:00,
2014-10-25 04:41:00,56.6,54.2,29.86,West,279,3.0,7.0,91,-99.99,,,-99.99,0.0,1-wire,2014-10-25 09:41:00,
2014-10-25 04:46:00,56.7,54.1,29.86,West,271,1.0,4.0,91,-99.99,,,-99.99,0.0,1-wire,2014-10-25 09:46:00,
2014-10-25 04:51:00,56.7,54.3,29.86,West,271,2.0,6.0,92,-99.99,,,-99.99,0.0,1-wire,2014-10-25 09:51:00,
2014-10-25 04:56:00,56.6,54.2,29.86,West,271,3.0,7.0,91,-99.99,,,-99.99,0.0,1-wire,2014-10-25 09:56:00,
2014-10-25 05:01:00,56.6,54.2,29.86,West,275,2.0,4.0,91,-99.99,,,-99.99,1.5,1-wire,2014-10-25 10:01:00,
2014-10-25 05:06:00,56.5,54.0,29.88,West,275,4.0,8.0,91,-99.99,,,-99.99,0.0,1-wire,2014-10-25 10:06:00,
2014-10-25 05:11:00,56.4,53.9,29.88,West,275,4.0,8.0,91,-99.99,,,-99.99,0.0,1-wire,2014-10-25 10:11:00,
2014-10-25 05:17:00,56.6,54.0,29.88,WNW,285,3.0,6.0,91,-99.99,,,-99.99,0.0,1-wire,2014-10-25 10:17:00,
2014-10-25 05:22:00,56.6,53.9,29.88,WNW,285,1.0,3.0,91,-99.99,,,-99.99,0.0,1-wire,2014-10-25 10:22:00,
2014-10-25 05:27:00,56.4,53.9,29.88,West,270,1.0,5.0,91,-99.99,,,-99.99,1.5,1-wire,2014-10-25 10:27:00,
2014-10-25 05:32:00,56.5,54.0,29.88,West,270,2.0,6.0,91,-99.99,,,-99.99,0.0,1-wire,2014-10-25 10:32:00,
2014-10-25 05:37:00,56.5,54.0,29.88,West,270,3.0,5.0,91,-99.99,,,-99.99,0.0,1-wire,2014-10-25 10:37:00,
2014-10-25 05:42:00,56.5,53.9,29.88,West,279,3.0,7.0,91,-99.99,,,-99.99,0.0,1-wire,2014-10-25 10:42:00,
2014-10-25 05:47:00,56.4,53.9,29.88,West,279,5.0,10.0,91,-99.99,,,-99.99,0.0,1-wire,2014-10-25 10:47:00,
2014-10-25 05:52:00,56.6,53.9,29.88,West,279,1.0,2.0,91,-99.99,,,-99.99,0.0,1-wire,2014-10-25 10:52:00,
2014-10-25 05:57:00,56.5,53.9,29.88,West,280,0.0,2.0,91,-99.99,,,-99.99,0.0,1-wire,2014-10-25 10:57:00,
2014-10-25 06:02:00,56.5,53.7,29.88,West,280,0.0,2.0,91,-99.99,,,-99.99,0.0,1-wire,2014-10-25 11:02:00,
2014-10-25 06:07:00,56.4,53.7,29.89,West,280,2.0,7.0,91,-99.99,,,-99.99,0.0,1-wire,2014-10-25 11:07:00,
2014-10-25 06:12:00,56.3,53.6,29.89,WNW,287,1.0,4.0,91,-99.99,,,-99.99,0.0,1-wire,2014-10-25 11:12:00,
2014-10-25 06:17:00,56.3,53.6,29.88,WNW,287,1.0,4.0,91,-99.99,,,-99.99,0.0,1-wire,2014-10-25 11:17:00,
2014-10-25 06:23:00,56.2,53.4,29.88,WNW,287,1.0,4.0,90,-99.99,,,-99.99,0.0,1-wire,2014-10-25 11:23:00,
2014-10-25 06:28:00,56.1,53.2,29.88,WNW,282,2.0,4.0,90,-99.99,,,-99.99,0.0,1-wire,2014-10-25 11:28:00,
2014-10-25 06:33:00,56.0,53.1,29.88,WNW,282,1.0,5.0,90,-99.99,,,-99.99,0.0,1-wire,2014-10-25 11:33:00,